createdAt,value
2023-05-14T00:00:49.417Z,102300.72
2023-05-14T00:03:17.855Z,102295.31
2023-05-14T00:05:47.677Z,102303.22
2023-05-14T00:08:15.901Z,102303.19
2023-05-14T00:10:44.143Z,102306.72
2023-05-14T00:13:12.359Z,102312.00
2023-05-14T00:15:40.880Z,102308.50
2023-05-14T00:18:12.183Z,102312.00
2023-05-14T00:20:40.517Z,102318.97
2023-05-14T00:23:10.258Z,102311.84
2023-05-14T00:25:38.842Z,102318.84
2023-05-14T00:28:07.053Z,102317.97
2023-05-14T00:30:35.362Z,102314.41
2023-05-14T00:33:03.635Z,102313.50
2023-05-14T00:35:32.421Z,102315.13
2023-05-14T00:38:00.704Z,102311.44
2023-05-14T00:40:30.816Z,102313.16
2023-05-14T00:42:59.140Z,102300.03
2023-05-14T00:45:27.820Z,102301.91
2023-05-14T00:47:56.313Z,102302.00
2023-05-14T00:50:25.253Z,102310.03
2023-05-14T00:52:53.797Z,102317.00
2023-05-14T00:55:23.016Z,102309.09
2023-05-14T00:57:54.716Z,102310.88
2023-05-14T01:00:23.185Z,102312.63
2023-05-14T01:02:51.922Z,102310.03
2023-05-14T01:05:20.291Z,102314.44
2023-05-14T01:07:56.556Z,102310.03
2023-05-14T01:10:32.600Z,102307.44
2023-05-14T01:13:13.905Z,102315.38
2023-05-14T01:15:45.392Z,102304.88
2023-05-14T01:18:18.914Z,102315.44
2023-05-14T01:20:47.428Z,102306.72
2023-05-14T01:23:17.296Z,102311.13
2023-05-14T01:25:45.605Z,102310.16
2023-05-14T01:28:19.024Z,102304.94
2023-05-14T01:30:58.488Z,102303.22
2023-05-14T01:33:28.770Z,102304.09
2023-05-14T01:35:58.603Z,102304.84
2023-05-14T01:38:30.836Z,102308.31
2023-05-14T01:41:01.090Z,102306.63
2023-05-14T01:43:31.504Z,102302.31
2023-05-14T01:46:00.227Z,102305.88
2023-05-14T01:48:30.120Z,102304.19
2023-05-14T01:50:58.484Z,102310.28
2023-05-14T01:53:28.205Z,102298.84
2023-05-14T01:55:56.530Z,102305.91
2023-05-14T01:58:24.860Z,102309.47
2023-05-14T02:00:53.145Z,102307.69
2023-05-14T02:03:21.767Z,102316.50
2023-05-14T02:05:50.060Z,102310.44
2023-05-14T02:08:18.433Z,102321.03
2023-05-14T02:10:48.158Z,102318.41
2023-05-14T02:13:18.352Z,102317.59
2023-05-14T02:15:47.396Z,102328.16
2023-05-14T02:18:15.955Z,102309.53
2023-05-14T02:20:44.490Z,102335.06
2023-05-14T02:23:12.997Z,102329.78
2023-05-14T02:25:41.349Z,102335.06
2023-05-14T02:28:11.280Z,102342.16
2023-05-14T02:30:40.186Z,102322.81
2023-05-14T02:33:08.718Z,102325.50
2023-05-14T02:35:37.460Z,102328.19
2023-05-14T02:38:06.868Z,102319.50
2023-05-14T02:40:35.244Z,102317.81
2023-05-14T02:43:03.520Z,102321.38
2023-05-14T02:45:33.136Z,102321.47
2023-05-14T02:48:01.560Z,102325.91
2023-05-14T02:50:30.362Z,102323.28
2023-05-14T02:52:58.588Z,102318.94
2023-05-14T02:55:27.471Z,102319.91
2023-05-14T02:57:56.893Z,102315.59
2023-05-14T03:00:25.812Z,102313.88
2023-05-14T03:02:56.335Z,102316.59
2023-05-14T03:05:25.180Z,102313.97
2023-05-14T03:07:54.075Z,102310.53
2023-05-14T03:10:22.598Z,102310.59
2023-05-14T03:12:51.655Z,102312.41
2023-05-14T03:15:20.215Z,102309.78
2023-05-14T03:17:48.572Z,102304.56
2023-05-14T03:20:18.938Z,102301.94
2023-05-14T03:22:48.060Z,102304.63
2023-05-14T03:25:16.348Z,102300.28
2023-05-14T03:27:44.637Z,102302.06
2023-05-14T03:30:13.809Z,102302.09
2023-05-14T03:32:43.107Z,102303.88
2023-05-14T03:35:12.537Z,102302.13
2023-05-14T03:37:42.342Z,102301.28
2023-05-14T03:40:11.463Z,102297.78
2023-05-14T03:42:39.849Z,102298.66
2023-05-14T03:45:10.796Z,102293.38
2023-05-14T03:47:39.125Z,102297.84
2023-05-14T03:50:08.907Z,102300.50
2023-05-14T03:52:37.402Z,102290.88
2023-05-14T03:55:08.226Z,102287.38
2023-05-14T03:57:37.912Z,102286.53
2023-05-14T04:00:07.315Z,102278.66
2023-05-14T04:02:46.160Z,102276.91
2023-05-14T04:05:14.819Z,102278.69
2023-05-14T04:07:45.281Z,102282.22
2023-05-14T04:10:15.972Z,102283.16
2023-05-14T04:12:44.283Z,102270.84
2023-05-14T04:15:13.049Z,102291.09
2023-05-14T04:17:43.014Z,102293.78
2023-05-14T04:20:13.994Z,102292.88
2023-05-14T04:22:42.356Z,102292.94
2023-05-14T04:25:11.018Z,102299.13
2023-05-14T04:27:41.582Z,102291.22
2023-05-14T04:30:11.409Z,102299.22
2023-05-14T04:32:40.031Z,102294.88
2023-05-14T04:35:10.114Z,102295.81
2023-05-14T04:37:38.455Z,102287.06
2023-05-14T04:40:08.239Z,102280.97
2023-05-14T04:42:36.584Z,102275.66
2023-05-14T04:45:07.267Z,102277.53
2023-05-14T04:47:36.018Z,102274.94
2023-05-14T04:50:04.400Z,102264.44
2023-05-14T04:52:34.558Z,102268.84
2023-05-14T04:55:02.866Z,102270.66
2023-05-14T04:57:33.435Z,102263.63
2023-05-14T05:00:02.024Z,102266.31
2023-05-14T05:02:34.856Z,102265.50
2023-05-14T05:05:04.170Z,102261.13
2023-05-14T05:07:35.158Z,102262.94
2023-05-14T05:10:03.589Z,102266.44
2023-05-14T05:12:35.445Z,102259.41
2023-05-14T05:15:04.032Z,102258.53
2023-05-14T05:17:38.161Z,102272.63
2023-05-14T05:20:09.776Z,102273.53
2023-05-14T05:22:38.096Z,102270.88
2023-05-14T05:25:08.200Z,102279.69
2023-05-14T05:27:36.791Z,102282.31
2023-05-14T05:30:06.506Z,102277.03
2023-05-14T05:32:37.882Z,102278.75
2023-05-14T05:35:06.901Z,102280.47
2023-05-14T05:37:35.177Z,102276.06
2023-05-14T05:40:04.332Z,102276.94
2023-05-14T05:42:32.988Z,102284.78
2023-05-14T05:45:01.325Z,102275.88
2023-05-14T05:47:33.252Z,102278.44
2023-05-14T05:50:03.048Z,102275.66
2023-05-14T05:52:32.449Z,102274.63
2023-05-14T05:55:01.103Z,102267.47
2023-05-14T05:57:30.486Z,102269.06
2023-05-14T05:59:59.192Z,102264.47
2023-05-14T06:02:27.590Z,102264.38
2023-05-14T06:04:56.030Z,102266.84
2023-05-14T06:07:25.737Z,102260.53
2023-05-14T06:09:54.050Z,102265.66
2023-05-14T06:12:22.318Z,102258.44
2023-05-14T06:14:51.416Z,102261.81
2023-05-14T06:17:19.849Z,102255.47
2023-05-14T06:19:48.392Z,102252.69
2023-05-14T06:22:16.735Z,102256.19
2023-05-14T06:24:46.530Z,102257.78
2023-05-14T06:27:14.945Z,102259.44
2023-05-14T06:29:43.174Z,102259.34
2023-05-14T06:32:14.339Z,102258.53
2023-05-14T06:34:42.803Z,102253.16
2023-05-14T06:37:12.814Z,102253.03
2023-05-14T06:39:44.251Z,102245.81
2023-05-14T06:42:13.967Z,102253.66
2023-05-14T06:44:42.490Z,102256.16
2023-05-14T06:47:10.822Z,102253.50
2023-05-14T06:49:39.197Z,102257.72
2023-05-14T06:52:08.303Z,102261.06
2023-05-14T06:54:36.569Z,102257.31
2023-05-14T06:57:05.405Z,102256.22
2023-05-14T06:59:34.985Z,102257.69
2023-05-14T07:02:03.495Z,102263.66
2023-05-14T07:04:32.082Z,102253.59
2023-05-14T07:07:00.543Z,102257.78
2023-05-14T07:09:29.780Z,102255.75
2023-05-14T07:11:58.116Z,102254.59
2023-05-14T07:14:26.712Z,102256.16
2023-05-14T07:16:57.360Z,102256.78
2023-05-14T07:19:28.748Z,102255.69
2023-05-14T07:21:57.765Z,102255.50
2023-05-14T07:24:26.032Z,102239.22
2023-05-14T07:26:54.649Z,102244.22
2023-05-14T07:29:22.913Z,102242.31
2023-05-14T07:31:51.556Z,102246.00
2023-05-14T07:34:21.503Z,102240.50
2023-05-14T07:36:49.876Z,102245.41
2023-05-14T07:39:18.217Z,102241.13
2023-05-14T07:41:46.614Z,102244.50
2023-05-14T07:44:14.910Z,102242.34
2023-05-14T07:46:43.738Z,102240.25
2023-05-14T07:49:12.018Z,102241.78
2023-05-14T07:51:42.084Z,102240.94
2023-05-14T07:54:11.342Z,102237.38
2023-05-14T07:56:39.652Z,102235.38
2023-05-14T07:59:08.382Z,102235.09
2023-05-14T08:01:38.584Z,102241.84
2023-05-14T08:04:08.099Z,102239.75
2023-05-14T08:06:37.262Z,102241.38
2023-05-14T08:09:07.043Z,102235.19
2023-05-14T08:11:35.464Z,102233.69
2023-05-14T08:14:03.781Z,102233.66
2023-05-14T08:16:32.040Z,102230.34
2023-05-14T08:19:01.615Z,102223.09
2023-05-14T08:21:30.107Z,102213.78
2023-05-14T08:23:58.424Z,102221.16
2023-05-14T08:26:28.273Z,102221.53
2023-05-14T08:28:56.719Z,102227.38
2023-05-14T08:31:25.311Z,102191.78
2023-05-14T08:33:53.611Z,102220.53
2023-05-14T08:36:22.027Z,102214.22
2023-05-14T08:38:50.893Z,102214.09
2023-05-14T08:41:19.889Z,102205.69
2023-05-14T08:43:59.779Z,102210.56
2023-05-14T08:46:31.719Z,102208.59
2023-05-14T08:49:06.315Z,102214.63
2023-05-14T08:51:34.837Z,102215.19
2023-05-14T08:54:04.409Z,102212.13
2023-05-14T08:56:34.005Z,102212.81
2023-05-14T08:59:03.874Z,102211.81
2023-05-14T09:01:32.440Z,102209.72
2023-05-14T09:04:07.185Z,102201.88
2023-05-14T09:06:37.678Z,102203.06
2023-05-14T09:09:06.560Z,102201.97
2023-05-14T09:11:34.892Z,102196.03
2023-05-14T09:14:04.739Z,102197.13
2023-05-14T09:16:33.430Z,102195.06
2023-05-14T09:19:01.903Z,102184.63
2023-05-14T09:21:32.826Z,102195.31
2023-05-14T09:24:02.139Z,102194.50
2023-05-14T09:26:33.919Z,102186.75
2023-05-14T09:29:05.185Z,102186.66
2023-05-14T09:31:35.272Z,102174.94
2023-05-14T09:34:04.497Z,102179.88
2023-05-14T09:36:35.593Z,102170.28
2023-05-14T09:39:05.869Z,102176.38
2023-05-14T09:41:34.085Z,102181.75
2023-05-14T09:44:04.174Z,102182.00
2023-05-14T09:46:35.218Z,102163.44
2023-05-14T09:49:03.684Z,102175.38
2023-05-14T09:51:33.371Z,102170.22
2023-05-14T09:54:02.062Z,102169.41
2023-05-14T09:56:30.647Z,102167.16
2023-05-14T09:58:59.119Z,102159.91
2023-05-14T10:01:29.617Z,102160.06
2023-05-14T10:03:59.310Z,102157.28
2023-05-14T10:06:31.937Z,102149.19
2023-05-14T10:09:12.365Z,102150.91
2023-05-14T10:11:46.417Z,102157.94
2023-05-14T10:14:19.816Z,102144.63
2023-05-14T10:16:50.675Z,102152.91
2023-05-14T10:19:24.703Z,102145.56
2023-05-14T10:21:58.329Z,102146.97
2023-05-14T10:24:27.897Z,102134.00
2023-05-14T10:26:58.751Z,102138.78
2023-05-14T10:29:34.979Z,102115.03
2023-05-14T10:32:06.759Z,102130.88
2023-05-14T10:34:42.696Z,102137.72
2023-05-14T10:37:13.675Z,102124.44
2023-05-14T10:39:46.442Z,102121.84
2023-05-14T10:42:17.700Z,102119.31
2023-05-14T10:44:52.492Z,102114.91
2023-05-14T10:47:21.536Z,102112.44
2023-05-14T10:49:54.907Z,102112.38
2023-05-14T10:52:24.994Z,102108.47
2023-05-14T10:54:55.363Z,102106.81
2023-05-14T10:57:26.619Z,102102.88
2023-05-14T10:59:56.536Z,102103.53
2023-05-14T11:02:27.032Z,102102.13
2023-05-14T11:05:11.123Z,102093.34
2023-05-14T11:07:41.360Z,102096.88
2023-05-14T11:10:11.237Z,102096.38
2023-05-14T11:12:41.652Z,102080.22
2023-05-14T11:15:12.145Z,102081.31
2023-05-14T11:17:42.455Z,102086.69
2023-05-14T11:20:16.800Z,102079.25
2023-05-14T11:22:46.822Z,102081.63
2023-05-14T11:25:16.292Z,102084.09
2023-05-14T11:27:46.199Z,102077.41
2023-05-14T11:30:16.323Z,102077.25
2023-05-14T11:32:46.435Z,102078.22
2023-05-14T11:35:17.267Z,102072.31
2023-05-14T11:37:51.969Z,102066.72
2023-05-14T11:40:21.510Z,102079.03
2023-05-14T11:42:52.561Z,102070.44
2023-05-14T11:45:26.541Z,102075.56
2023-05-14T11:47:55.207Z,102060.19
2023-05-14T11:50:25.292Z,102071.22
2023-05-14T11:52:58.480Z,102067.41
2023-05-14T11:55:27.153Z,102061.97
2023-05-14T11:57:55.945Z,102068.97
2023-05-14T12:00:25.293Z,102063.13
2023-05-14T12:02:53.945Z,102052.75
2023-05-14T12:05:22.420Z,102055.59
2023-05-14T12:07:52.166Z,102058.13
2023-05-14T12:10:20.926Z,102052.03
2023-05-14T12:12:50.745Z,102058.22
2023-05-14T12:15:22.006Z,102056.31
2023-05-14T12:17:53.975Z,102042.53
2023-05-14T12:20:26.469Z,102052.66
2023-05-14T12:22:56.915Z,102049.50
2023-05-14T12:25:27.307Z,102045.75
2023-05-14T12:27:55.791Z,102035.31
2023-05-14T12:30:24.686Z,102038.22
2023-05-14T12:32:53.816Z,102044.72
2023-05-14T12:35:22.960Z,102045.88
2023-05-14T12:37:54.445Z,102037.31
2023-05-14T12:40:25.600Z,102048.41
2023-05-14T12:42:56.869Z,102045.94
2023-05-14T12:45:26.178Z,102046.63
2023-05-14T12:47:58.477Z,102041.38
2023-05-14T12:50:32.599Z,102040.72
2023-05-14T12:53:05.785Z,102047.13
2023-05-14T12:55:40.350Z,102047.91
2023-05-14T12:58:10.164Z,102047.34
2023-05-14T13:00:42.257Z,102055.94
2023-05-14T13:03:11.163Z,102042.94
2023-05-14T13:05:40.230Z,102047.13
2023-05-14T13:08:08.945Z,102044.00
2023-05-14T13:10:38.985Z,102044.03
2023-05-14T13:13:07.697Z,102047.31
2023-05-14T13:15:39.882Z,102041.72
2023-05-14T13:18:08.900Z,102046.06
2023-05-14T13:20:43.086Z,102027.44
2023-05-14T13:23:12.022Z,102029.72
2023-05-14T13:25:43.759Z,102030.81
2023-05-14T13:28:12.639Z,102024.66
2023-05-14T13:31:04.093Z,102011.22
2023-05-14T13:33:33.985Z,102022.47
2023-05-14T13:36:06.031Z,102011.72
2023-05-14T13:38:38.383Z,102002.38
2023-05-14T13:41:08.827Z,102004.59
2023-05-14T13:43:37.254Z,102011.41
2023-05-14T13:46:07.318Z,102017.19
2023-05-14T13:48:37.522Z,102001.09
2023-05-14T13:51:06.347Z,102006.59
2023-05-14T13:53:35.008Z,102003.34
2023-05-14T13:56:03.829Z,101994.47
2023-05-14T13:58:33.984Z,102002.09
2023-05-14T14:01:02.916Z,102015.50
2023-05-14T14:03:32.257Z,102016.91
2023-05-14T14:06:01.219Z,102010.75
2023-05-14T14:08:31.265Z,102012.28
2023-05-14T14:11:03.277Z,102006.81
2023-05-14T14:13:33.426Z,102003.56
2023-05-14T14:16:03.357Z,101998.59
2023-05-14T14:18:36.284Z,102002.50
2023-05-14T14:21:07.790Z,102008.69
2023-05-14T14:23:36.928Z,101987.78
2023-05-14T14:26:06.357Z,102001.41
2023-05-14T14:28:37.184Z,102003.22
2023-05-14T14:31:06.073Z,101996.97
2023-05-14T14:33:35.163Z,101993.19
2023-05-14T14:36:03.959Z,101997.09
2023-05-14T14:38:32.630Z,101994.38
2023-05-14T14:41:03.421Z,101977.91
2023-05-14T14:43:32.311Z,101989.91
2023-05-14T14:46:02.898Z,101990.88
2023-05-14T14:48:37.664Z,101985.13
2023-05-14T14:51:10.429Z,101987.50
2023-05-14T14:53:41.912Z,101986.53
2023-05-14T14:56:10.614Z,101987.41
2023-05-14T14:58:39.956Z,101974.28
2023-05-14T15:01:13.069Z,101979.44
2023-05-14T15:03:41.989Z,101983.34
2023-05-14T15:06:12.131Z,101974.31
2023-05-14T15:08:41.733Z,101978.88
2023-05-14T15:11:10.984Z,101973.63
2023-05-14T15:13:41.042Z,101980.19
2023-05-14T15:16:14.516Z,101955.84
2023-05-14T15:18:43.781Z,101975.44
2023-05-14T15:21:13.165Z,101966.97
2023-05-14T15:23:42.207Z,101968.94
2023-05-14T15:26:10.929Z,101963.84
2023-05-14T15:28:44.934Z,101970.19
2023-05-14T15:31:19.559Z,101952.44
2023-05-14T15:33:52.301Z,101966.94
2023-05-14T15:36:22.395Z,101955.75
2023-05-14T15:38:55.986Z,101954.38
2023-05-14T15:41:28.984Z,101964.09
2023-05-14T15:43:59.020Z,101947.28
2023-05-14T15:46:29.304Z,101952.53
2023-05-14T15:48:58.913Z,101942.69
2023-05-14T15:51:27.631Z,101951.59
2023-05-14T15:53:56.748Z,101949.81
2023-05-14T15:56:26.351Z,101943.66
2023-05-14T15:58:55.259Z,101942.09
2023-05-14T16:01:30.030Z,101943.66
2023-05-14T16:04:00.472Z,101940.81
2023-05-14T16:06:32.751Z,101940.47
2023-05-14T16:09:04.203Z,101942.66
2023-05-14T16:11:36.186Z,101931.41
2023-05-14T16:14:05.347Z,101936.81
2023-05-14T16:16:34.031Z,101913.78
2023-05-14T16:19:08.053Z,101857.56
2023-05-14T16:21:45.563Z,101933.88
2023-05-14T16:24:19.773Z,101925.66
2023-05-14T16:26:49.344Z,101938.22
2023-05-14T16:29:18.549Z,101923.50
2023-05-14T16:31:47.743Z,101934.31
2023-05-14T16:34:20.350Z,101908.72
2023-05-14T16:36:49.614Z,101932.44
2023-05-14T16:39:21.480Z,101923.13
2023-05-14T16:42:01.394Z,101928.38
2023-05-14T16:44:33.017Z,101932.72
2023-05-14T16:47:01.925Z,101919.41
2023-05-14T16:49:32.140Z,101921.19
2023-05-14T16:52:03.360Z,101929.41
2023-05-14T16:54:34.933Z,101919.88
2023-05-14T16:57:03.306Z,101924.22
2023-05-14T16:59:31.794Z,101925.00
2023-05-14T17:02:00.305Z,101919.66
2023-05-14T17:04:29.236Z,101929.47
2023-05-14T17:06:59.417Z,101920.63
2023-05-14T17:09:27.672Z,101925.72
2023-05-14T17:11:56.144Z,101928.16
2023-05-14T17:14:29.321Z,101929.88
2023-05-14T17:17:00.337Z,101931.63
2023-05-14T17:19:30.121Z,101936.00
2023-05-14T17:22:00.625Z,101933.25
2023-05-14T17:24:28.872Z,101936.25
2023-05-14T17:26:57.138Z,101944.25
2023-05-14T17:29:25.593Z,101940.63
2023-05-14T17:31:54.662Z,101935.81
2023-05-14T17:34:23.167Z,101935.13
2023-05-14T17:36:51.638Z,101939.81
2023-05-14T17:39:21.205Z,101943.72
2023-05-14T17:41:49.471Z,101937.66
2023-05-14T17:44:17.767Z,101943.06
2023-05-14T17:46:46.253Z,101946.72
2023-05-14T17:49:14.523Z,101938.97
2023-05-14T17:51:42.817Z,101942.91
2023-05-14T17:54:11.125Z,101946.88
2023-05-14T17:56:41.522Z,101951.03
2023-05-14T17:59:09.897Z,101948.94
2023-05-14T18:01:38.174Z,101952.16
2023-05-14T18:04:06.934Z,101957.16
2023-05-14T18:06:36.817Z,101953.22
2023-05-14T18:09:05.435Z,101951.63
2023-05-14T18:11:34.078Z,101956.94
2023-05-14T18:14:04.162Z,101957.91
2023-05-14T18:16:32.724Z,101955.34
2023-05-14T18:19:01.407Z,101961.03
2023-05-14T18:21:30.223Z,101963.03
2023-05-14T18:23:58.544Z,101963.94
2023-05-14T18:26:26.909Z,101950.72
2023-05-14T18:28:55.628Z,101964.06
2023-05-14T18:31:27.433Z,101960.59
2023-05-14T18:33:55.876Z,101958.00
2023-05-14T18:36:24.133Z,101970.69
2023-05-14T18:38:52.546Z,101971.03
2023-05-14T18:41:21.862Z,101971.34
2023-05-14T18:43:50.143Z,101978.63
2023-05-14T18:46:18.574Z,101972.72
2023-05-14T18:48:48.390Z,101981.94
2023-05-14T18:51:16.646Z,101974.09
2023-05-14T18:53:44.956Z,101972.69
2023-05-14T18:56:13.365Z,101963.25
2023-05-14T18:58:41.705Z,101974.63
2023-05-14T19:01:10.114Z,101971.94
2023-05-14T19:03:38.710Z,101963.13
2023-05-14T19:06:08.843Z,101972.97
2023-05-14T19:08:37.227Z,101965.16
2023-05-14T19:11:05.900Z,101975.03
2023-05-14T19:13:34.165Z,101973.34
2023-05-14T19:16:02.662Z,101967.34
2023-05-14T19:18:31.396Z,101971.91
2023-05-14T19:21:00.140Z,101965.81
2023-05-14T19:23:31.201Z,101956.25
2023-05-14T19:25:59.800Z,101951.00
2023-05-14T19:28:28.093Z,101953.94
2023-05-14T19:30:57.382Z,101962.19
2023-05-14T19:33:26.419Z,101954.31
2023-05-14T19:35:55.532Z,101949.41
2023-05-14T19:38:23.811Z,101953.84
2023-05-14T19:40:57.073Z,101957.59
2023-05-14T19:43:26.208Z,101949.84
2023-05-14T19:45:54.534Z,101965.00
2023-05-14T19:48:23.235Z,101953.56
2023-05-14T19:50:51.979Z,101957.13
2023-05-14T19:53:20.348Z,101961.50
2023-05-14T19:55:48.927Z,101960.72
2023-05-14T19:58:18.686Z,101962.50
2023-05-14T20:00:47.433Z,101967.91
2023-05-14T20:03:15.955Z,101962.81
2023-05-14T20:05:46.026Z,101964.53
2023-05-14T20:08:14.396Z,101960.16
2023-05-14T20:10:42.628Z,101963.66
2023-05-14T20:13:11.170Z,101961.03
2023-05-14T20:15:41.301Z,101962.88
2023-05-14T20:18:09.889Z,101964.66
2023-05-14T20:20:38.235Z,101958.56
2023-05-14T20:23:06.826Z,101953.34
2023-05-14T20:25:35.740Z,101965.78
2023-05-14T20:28:04.031Z,101964.09
2023-05-14T20:30:32.536Z,101955.34
2023-05-14T20:33:02.415Z,101956.22
2023-05-14T20:35:31.294Z,101960.69
2023-05-14T20:38:00.282Z,101960.75
2023-05-14T20:40:28.682Z,101957.28
2023-05-14T20:42:57.080Z,101971.41
2023-05-14T20:45:25.584Z,101969.69
2023-05-14T20:47:53.924Z,101971.50
2023-05-14T20:50:23.687Z,101975.06
2023-05-14T20:52:52.145Z,101975.97
2023-05-14T20:55:21.784Z,101975.97
2023-05-14T20:57:50.715Z,101962.81
2023-05-14T21:00:19.908Z,101973.38
2023-05-14T21:02:49.226Z,101973.38
2023-05-14T21:05:18.581Z,101973.38
2023-05-14T21:07:48.228Z,101970.75
2023-05-14T21:10:17.124Z,101969.88
2023-05-14T21:12:45.555Z,101961.97
2023-05-14T21:15:13.820Z,101972.50
2023-05-14T21:17:42.188Z,101972.53
2023-05-14T21:20:13.465Z,101950.56
2023-05-14T21:22:41.795Z,101971.63
2023-05-14T21:25:12.067Z,101964.59
2023-05-14T21:27:40.493Z,101973.41
2023-05-14T21:30:09.977Z,101972.50
2023-05-14T21:32:38.440Z,101971.63
2023-05-14T21:35:07.454Z,101963.72
2023-05-14T21:37:35.790Z,101973.41
2023-05-14T21:40:04.044Z,101976.88
2023-05-14T21:42:35.848Z,101971.63
2023-05-14T21:45:04.261Z,101959.31
2023-05-14T21:47:34.820Z,101975.13
2023-05-14T21:50:04.933Z,101969.84
2023-05-14T21:52:34.159Z,101981.25
2023-05-14T21:55:02.402Z,101976.88
2023-05-14T21:57:34.242Z,101972.47
2023-05-14T22:00:07.727Z,101972.44
2023-05-14T22:02:36.029Z,101971.53
2023-05-14T22:05:05.258Z,101974.19
2023-05-14T22:07:33.782Z,101964.47
2023-05-14T22:10:02.329Z,101975.88
2023-05-14T22:12:47.049Z,101967.91
2023-05-14T22:15:16.813Z,101971.38
2023-05-14T22:17:45.065Z,101969.63
2023-05-14T22:20:13.610Z,101967.91
2023-05-14T22:22:41.988Z,101974.91
2023-05-14T22:25:11.079Z,101968.75
2023-05-14T22:27:39.294Z,101964.28
2023-05-14T22:30:08.927Z,101969.50
2023-05-14T22:32:38.518Z,101968.56
2023-05-14T22:35:07.123Z,101973.81
2023-05-14T22:37:35.356Z,101968.53
2023-05-14T22:40:05.216Z,101965.88
2023-05-14T22:42:33.925Z,101971.03
2023-05-14T22:45:02.418Z,101968.31
2023-05-14T22:47:33.384Z,101975.25
2023-05-14T22:50:03.293Z,101969.94
2023-05-14T22:52:32.731Z,101974.22
2023-05-14T22:55:01.029Z,101978.56
2023-05-14T22:57:29.379Z,101981.13
2023-05-14T22:59:57.633Z,101974.03
2023-05-14T23:02:25.837Z,101969.56
2023-05-14T23:04:54.317Z,101972.09
2023-05-14T23:07:24.214Z,101960.63
2023-05-14T23:09:52.546Z,101971.94
2023-05-14T23:12:20.769Z,101966.69
2023-05-14T23:14:49.059Z,101959.66
2023-05-14T23:17:18.348Z,101965.75
2023-05-14T23:19:46.788Z,101970.06
2023-05-14T23:22:15.089Z,101969.19
2023-05-14T23:24:45.088Z,101966.59
2023-05-14T23:27:13.418Z,101971.00
2023-05-14T23:29:41.691Z,101963.13
2023-05-14T23:32:10.181Z,101966.69
2023-05-14T23:34:38.549Z,101958.00
2023-05-14T23:37:07.768Z,101958.88
2023-05-14T23:39:36.081Z,101959.75
2023-05-14T23:42:05.855Z,101953.63
2023-05-14T23:44:34.077Z,101958.88
2023-05-14T23:47:02.506Z,101959.81
2023-05-14T23:49:30.920Z,101951.94
2023-05-14T23:51:59.154Z,101955.47
2023-05-14T23:54:27.403Z,101955.47
2023-05-14T23:56:55.703Z,101958.09
2023-05-14T23:59:25.424Z,101968.63
